Time;durP1;ratioP1;P1;durP2;ratioP2;P2;SDS_P1;SDS_P2;PMS_P1;PMS_P2;Temp;Humidity;BMP_temperature;BMP_pressure;BME280_temperature;BME280_humidity;BME280_pressure;Samples;Min_cycle;Max_cycle;Signal;HPM_P1;HPM_P2
2022/04/30 00:00:05;;;;;;;1.65;0.47;;;18.80;99.90;;;;;;5097055;28;20127;-75
2022/04/30 00:02:32;;;;;;;1.52;0.30;;;18.70;99.90;;;;;;5095162;28;20056;-73
2022/04/30 00:04:59;;;;;;;2.78;0.40;;;18.80;99.90;;;;;;5079898;28;20090;-74
2022/04/30 00:07:26;;;;;;;1.65;0.47;;;18.70;99.90;;;;;;5097469;28;20107;-74
2022/04/30 00:09:54;;;;;;;1.75;0.65;;;18.70;99.90;;;;;;5092286;28;20062;-74
2022/04/30 00:12:23;;;;;;;1.98;0.55;;;18.70;99.90;;;;;;5089558;28;20052;-74
2022/04/30 00:14:51;;;;;;;1.13;1.00;;;18.70;99.90;;;;;;5081503;28;20107;-74
2022/04/30 00:17:18;;;;;;;0.65;0.47;;;18.70;99.90;;;;;;5074732;28;20032;-74
2022/04/30 00:19:46;;;;;;;0.93;0.50;;;18.70;99.90;;;;;;5086266;28;20524;-74
2022/04/30 00:22:13;;;;;;;1.75;0.40;;;18.70;99.90;;;;;;5090290;28;20058;-74
2022/04/30 00:24:41;;;;;;;2.22;0.60;;;18.70;99.90;;;;;;5091984;28;20036;-75
2022/04/30 00:27:10;;;;;;;1.20;0.50;;;18.70;99.90;;;;;;5101157;28;20031;-75
2022/04/30 00:29:37;;;;;;;1.60;0.60;;;18.70;99.90;;;;;;5098925;28;20027;-75
2022/04/30 00:32:05;;;;;;;2.35;0.40;;;18.70;99.90;;;;;;5093077;28;20454;-74
2022/04/30 00:34:32;;;;;;;1.95;0.65;;;18.80;99.90;;;;;;5087474;28;20531;-76
2022/04/30 00:37:02;;;;;;;4.05;0.63;;;18.70;99.90;;;;;;5079440;28;20039;-75
2022/04/30 00:39:33;;;;;;;1.50;0.90;;;18.70;99.90;;;;;;5089155;28;20044;-75
2022/04/30 00:42:00;;;;;;;1.52;0.77;;;18.60;99.90;;;;;;5087285;28;20028;-76
2022/04/30 00:44:28;;;;;;;1.67;0.70;;;18.60;99.90;;;;;;5087421;28;20509;-76
2022/04/30 00:46:55;;;;;;;3.50;1.48;;;18.60;99.90;;;;;;5075356;28;20077;-74
2022/04/30 00:49:25;;;;;;;2.72;2.00;;;18.50;99.90;;;;;;5075634;28;20055;-72
2022/04/30 00:51:55;;;;;;;2.92;2.30;;;18.50;99.90;;;;;;5075029;28;20020;-74
2022/04/30 00:54:26;;;;;;;3.22;1.70;;;18.50;99.90;;;;;;5077532;28;20031;-74
2022/04/30 00:56:58;;;;;;;5.43;1.67;;;18.50;99.90;;;;;;5075936;28;20085;-74
2022/04/30 00:59:26;;;;;;;6.07;1.55;;;18.50;99.90;;;;;;5074090;28;20044;-74
2022/04/30 01:01:59;;;;;;;0.93;0.57;;;18.40;99.90;;;;;;5074499;28;20031;-74
2022/04/30 01:04:27;;;;;;;1.17;0.60;;;18.50;99.90;;;;;;5098105;28;20035;-75
2022/04/30 01:07:00;;;;;;;2.33;0.55;;;18.40;99.90;;;;;;5093257;28;20038;-75
2022/04/30 01:09:29;;;;;;;2.15;0.88;;;18.40;99.90;;;;;;5077357;28;20482;-75
2022/04/30 01:12:11;;;;;;;1.38;0.40;;;18.50;99.90;;;;;;5083250;28;20047;-76
2022/04/30 01:14:42;;;;;;;0.55;0.30;;;18.50;99.90;;;;;;5091448;28;20028;-76
2022/04/30 01:17:11;;;;;;;2.17;0.50;;;18.50;99.90;;;;;;5089160;28;20119;-74
2022/04/30 01:19:42;;;;;;;0.63;0.40;;;18.50;99.90;;;;;;5093809;28;20514;-74
2022/04/30 01:22:11;;;;;;;0.73;0.30;;;18.50;99.90;;;;;;5095237;28;20076;-74
2022/04/30 01:24:39;;;;;;;0.50;0.28;;;18.50;99.90;;;;;;5092778;28;20056;-74
2022/04/30 01:27:07;;;;;;;1.48;0.30;;;18.50;99.90;;;;;;5096572;28;20047;-73
2022/04/30 01:29:36;;;;;;;2.45;0.50;;;18.50;99.90;;;;;;5092782;28;20027;-73
2022/04/30 01:37:37;;;;;;;4.55;0.50;;;18.60;99.90;;;;;;5090838;28;20078;-76
2022/04/30 01:40:10;;;;;;;1.15;0.30;;;18.60;99.90;;;;;;5088402;28;20040;-75
2022/04/30 01:42:46;;;;;;;0.88;0.28;;;18.60;99.90;;;;;;5090722;28;20059;-74
2022/04/30 01:45:18;;;;;;;0.63;0.25;;;18.60;99.90;;;;;;5077205;28;20020;-75
2022/04/30 01:47:47;;;;;;;0.60;0.40;;;18.60;99.90;;;;;;5076287;28;20135;-74
2022/04/30 01:50:15;;;;;;;1.13;0.40;;;18.70;99.90;;;;;;5078972;28;20487;-75
2022/04/30 01:52:42;;;;;;;2.60;0.38;;;18.70;99.90;;;;;;5072127;28;20024;-76
2022/04/30 01:55:10;;;;;;;1.83;0.30;;;18.70;99.90;;;;;;5074584;28;20107;-76
2022/04/30 01:57:42;;;;;;;1.50;0.57;;;18.80;99.90;;;;;;5071945;28;20029;-75
2022/04/30 02:00:12;;;;;;;2.50;0.60;;;18.80;99.90;;;;;;5071552;28;20036;-76
2022/04/30 02:02:42;;;;;;;0.93;0.30;;;18.80;99.90;;;;;;5087126;28;20030;-76
2022/04/30 02:05:13;;;;;;;2.05;0.40;;;18.90;99.90;;;;;;5082695;28;20060;-75
2022/04/30 02:07:49;;;;;;;0.40;0.20;;;18.90;99.90;;;;;;5080473;28;20036;-78
2022/04/30 02:10:20;;;;;;;0.68;0.40;;;18.90;99.90;;;;;;5087852;28;20567;-77
2022/04/30 02:12:50;;;;;;;0.82;0.30;;;18.80;99.90;;;;;;5095297;28;20377;-75
2022/04/30 02:15:20;;;;;;;2.67;0.50;;;18.80;99.90;;;;;;5089788;28;20062;-75
2022/04/30 02:17:47;;;;;;;0.80;0.45;;;18.90;99.90;;;;;;5083160;28;20047;-75
2022/04/30 02:20:22;;;;;;;1.23;0.50;;;19.00;99.90;;;;;;5090418;28;20028;-75
2022/04/30 02:22:51;;;;;;;2.03;0.45;;;19.00;99.90;;;;;;5088934;28;20027;-75
2022/04/30 02:25:20;;;;;;;1.08;0.40;;;19.00;99.90;;;;;;5090134;28;20050;-76
2022/04/30 02:27:49;;;;;;;1.13;0.30;;;18.90;99.90;;;;;;5087161;28;20107;-75
2022/04/30 02:30:19;;;;;;;0.77;0.40;;;18.90;99.90;;;;;;5091262;28;20073;-74
2022/04/30 02:32:52;;;;;;;1.25;0.50;;;18.90;99.90;;;;;;5084815;28;20118;-75
2022/04/30 02:35:22;;;;;;;1.52;0.73;;;18.90;99.90;;;;;;5091580;28;20481;-74
2022/04/30 02:37:52;;;;;;;0.85;0.52;;;19.00;99.90;;;;;;5095814;28;20020;-74
2022/04/30 02:40:22;;;;;;;1.52;0.50;;;19.10;99.90;;;;;;5073634;28;20546;-74
2022/04/30 02:42:52;;;;;;;2.17;0.40;;;19.20;99.90;;;;;;5085655;28;20031;-74
2022/04/30 02:45:22;;;;;;;1.05;0.43;;;19.20;99.90;;;;;;5079054;28;20142;-75
2022/04/30 02:47:56;;;;;;;0.70;0.40;;;19.30;99.90;;;;;;5084022;28;20044;-73
2022/04/30 02:50:25;;;;;;;0.85;0.30;;;19.20;99.90;;;;;;5088083;28;20387;-75
2022/04/30 02:52:56;;;;;;;0.60;0.40;;;19.10;99.90;;;;;;5078830;28;20386;-75
2022/04/30 02:55:24;;;;;;;0.57;0.40;;;19.20;99.90;;;;;;5070547;28;20033;-75
2022/04/30 03:00:44;;;;;;;2.75;0.40;;;19.30;99.90;;;;;;5090504;28;20378;-77
2022/04/30 03:03:14;;;;;;;0.82;0.40;;;19.30;99.90;;;;;;5087259;28;20020;-74
2022/04/30 03:05:43;;;;;;;0.98;0.75;;;19.40;99.90;;;;;;5082980;28;20048;-75
2022/04/30 03:08:22;;;;;;;1.45;0.60;;;19.60;99.90;;;;;;5079338;28;20067;-75
2022/04/30 03:10:53;;;;;;;0.68;0.47;;;19.60;99.90;;;;;;5089853;28;20022;-76
2022/04/30 03:13:21;;;;;;;1.58;0.52;;;19.60;99.90;;;;;;5081359;28;20069;-77
2022/04/30 03:15:50;;;;;;;2.22;1.02;;;19.70;99.90;;;;;;5071744;28;20781;-76
2022/04/30 03:23:54;;;;;;;3.22;0.32;;;19.80;99.90;;;;;;5086005;28;20116;-76
2022/04/30 03:26:21;;;;;;;1.00;0.60;;;19.80;99.90;;;;;;5093240;28;20055;-78
2022/04/30 03:28:51;;;;;;;0.98;0.47;;;19.80;99.90;;;;;;5092387;28;20024;-76
2022/04/30 03:31:18;;;;;;;0.95;0.40;;;19.70;99.90;;;;;;5088332;28;20035;-76
2022/04/30 03:33:48;;;;;;;0.80;0.77;;;19.60;99.90;;;;;;5090964;28;20052;-75
2022/04/30 03:36:17;;;;;;;0.80;0.52;;;19.60;99.90;;;;;;5094451;28;20028;-76
2022/04/30 03:38:45;;;;;;;2.60;0.55;;;19.60;99.90;;;;;;5094694;28;20085;-75
2022/04/30 03:41:12;;;;;;;1.15;0.43;;;19.60;99.90;;;;;;5098208;28;20027;-76
2022/04/30 03:43:39;;;;;;;0.57;0.30;;;19.70;99.90;;;;;;5085670;28;20036;-75
2022/04/30 03:46:07;;;;;;;3.53;0.60;;;19.70;99.90;;;;;;5092678;28;20024;-76
2022/04/30 03:48:34;;;;;;;1.38;1.25;;;19.60;99.90;;;;;;5080313;28;20383;-75
2022/04/30 03:51:03;;;;;;;1.02;0.50;;;19.60;99.90;;;;;;5092077;28;20086;-75
2022/04/30 03:53:30;;;;;;;1.52;0.50;;;19.60;99.90;;;;;;5088886;28;20035;-78
2022/04/30 03:55:57;;;;;;;3.72;0.90;;;19.60;99.90;;;;;;5073716;28;20035;-75
2022/04/30 03:58:25;;;;;;;3.08;0.80;;;19.50;99.90;;;;;;5073220;28;20551;-75
2022/04/30 04:00:54;;;;;;;2.40;0.45;;;19.50;99.90;;;;;;5081546;28;20058;-75
2022/04/30 04:03:22;;;;;;;1.40;0.65;;;19.50;99.90;;;;;;5088573;28;20716;-75
2022/04/30 04:05:49;;;;;;;0.70;0.52;;;19.60;99.90;;;;;;5073180;28;20729;-74
2022/04/30 04:08:20;;;;;;;1.45;0.85;;;19.60;99.90;;;;;;5074428;28;20047;-75
2022/04/30 04:10:49;;;;;;;2.42;0.88;;;19.70;99.90;;;;;;5071085;28;20024;-77
2022/04/30 04:18:51;;;;;;;3.10;0.82;;;19.80;99.90;;;;;;5072684;28;20127;-76
2022/04/30 04:21:20;;;;;;;0.50;0.32;;;19.80;99.90;;;;;;5076349;28;20485;-76
2022/04/30 04:26:32;;;;;;;2.05;0.50;;;19.90;99.90;;;;;;5075412;28;20067;-76
2022/04/30 04:29:00;;;;;;;1.38;0.73;;;19.90;99.90;;;;;;5076912;28;20064;-75
2022/04/30 04:31:27;;;;;;;0.60;0.50;;;20.00;99.90;;;;;;5074850;28;20505;-77
2022/04/30 04:33:54;;;;;;;1.27;0.20;;;20.00;99.90;;;;;;5070469;28;20052;-74
2022/04/30 04:36:22;;;;;;;1.95;0.70;;;20.00;99.90;;;;;;5072980;28;20025;-75
2022/04/30 04:38:49;;;;;;;1.73;0.70;;;20.10;99.90;;;;;;5087999;28;20477;-73
2022/04/30 04:41:17;;;;;;;1.17;0.57;;;20.10;99.90;;;;;;5094830;28;20029;-74
2022/04/30 04:43:44;;;;;;;0.60;0.35;;;20.10;99.90;;;;;;5085315;28;20032;-74
2022/04/30 04:46:12;;;;;;;0.80;0.50;;;20.10;99.90;;;;;;5076547;28;20062;-74
2022/04/30 04:48:39;;;;;;;1.00;0.60;;;20.20;99.90;;;;;;5081424;28;20253;-75
2022/04/30 04:51:07;;;;;;;0.85;0.45;;;20.20;99.90;;;;;;5091728;28;20543;-74
2022/04/30 04:53:35;;;;;;;1.05;0.40;;;20.20;99.90;;;;;;5091088;28;20078;-73
2022/04/30 04:56:03;;;;;;;2.35;0.77;;;20.20;99.90;;;;;;5080183;28;20105;-74
2022/04/30 04:58:31;;;;;;;2.72;0.60;;;20.20;99.90;;;;;;5098367;28;20406;-74
2022/04/30 05:00:58;;;;;;;1.15;0.40;;;20.30;99.90;;;;;;5073010;28;20036;-73
2022/04/30 05:03:25;;;;;;;1.27;0.30;;;20.40;99.90;;;;;;5079458;28;20062;-75
2022/04/30 05:05:53;;;;;;;1.80;0.60;;;20.40;99.90;;;;;;5083754;28;20032;-75
2022/04/30 05:08:20;;;;;;;1.15;0.60;;;20.40;99.90;;;;;;5078665;28;20035;-74
2022/04/30 05:10:47;;;;;;;1.33;0.30;;;20.40;99.90;;;;;;5071718;28;20529;-73
2022/04/30 05:13:15;;;;;;;0.63;0.43;;;20.40;99.90;;;;;;5091899;28;20024;-73
2022/04/30 05:15:43;;;;;;;1.05;0.30;;;20.40;99.90;;;;;;5112393;28;20505;-75
2022/04/30 05:18:11;;;;;;;1.40;0.70;;;20.40;99.90;;;;;;5083076;28;20119;-75
2022/04/30 05:20:39;;;;;;;1.35;0.45;;;20.40;99.90;;;;;;5074517;28;20032;-74
2022/04/30 05:23:06;;;;;;;1.60;0.40;;;20.40;99.90;;;;;;5072841;28;20036;-75
2022/04/30 05:25:34;;;;;;;1.05;0.77;;;20.40;99.90;;;;;;5075646;28;20043;-75
2022/04/30 05:28:02;;;;;;;0.95;0.38;;;20.40;99.90;;;;;;5076521;28;20016;-77
2022/04/30 05:30:29;;;;;;;0.55;0.55;;;20.50;99.90;;;;;;5075954;28;20040;-77
2022/04/30 05:32:57;;;;;;;0.47;0.47;;;20.70;99.90;;;;;;5083147;28;20056;-77
2022/04/30 05:35:24;;;;;;;1.30;0.30;;;20.90;99.90;;;;;;5071534;28;20032;-74
2022/04/30 05:37:52;;;;;;;1.23;0.45;;;21.00;99.90;;;;;;5075636;28;20043;-77
2022/04/30 05:40:19;;;;;;;1.40;0.40;;;21.00;99.90;;;;;;5069024;28;20032;-75
2022/04/30 05:42:46;;;;;;;0.35;0.20;;;21.20;99.90;;;;;;5071899;28;20032;-75
2022/04/30 05:45:14;;;;;;;0.80;0.28;;;21.20;99.90;;;;;;5070611;28;20032;-75
2022/04/30 05:47:41;;;;;;;0.52;0.28;;;21.20;99.90;;;;;;5072969;28;20056;-76
2022/04/30 05:50:09;;;;;;;0.60;0.30;;;21.10;99.90;;;;;;5072077;28;20067;-77
2022/04/30 05:52:36;;;;;;;0.93;0.40;;;21.10;99.90;;;;;;5077292;28;20086;-75
2022/04/30 05:55:05;;;;;;;0.60;0.20;;;21.20;99.90;;;;;;5078278;28;20020;-75
2022/04/30 05:57:33;;;;;;;0.22;0.17;;;21.20;99.90;;;;;;5074050;28;20134;-73
2022/04/30 06:00:01;;;;;;;0.98;0.38;;;21.20;99.90;;;;;;5071952;28;20047;-75
2022/04/30 06:02:28;;;;;;;0.80;0.22;;;21.30;99.90;;;;;;5071801;28;20035;-74
2022/04/30 06:04:56;;;;;;;0.60;0.40;;;21.30;99.90;;;;;;5097955;28;20410;-75
2022/04/30 06:07:23;;;;;;;0.30;0.30;;;21.40;99.90;;;;;;5103966;28;21663;-75
2022/04/30 06:09:50;;;;;;;0.45;0.30;;;21.40;99.90;;;;;;5070787;28;20028;-74
2022/04/30 06:12:19;;;;;;;1.45;0.20;;;21.50;99.90;;;;;;5069422;28;20024;-74
2022/04/30 06:14:47;;;;;;;0.43;0.25;;;21.50;99.90;;;;;;5074197;28;20077;-74
2022/04/30 06:17:14;;;;;;;0.60;0.60;;;21.50;99.90;;;;;;5073986;28;20547;-75
2022/04/30 06:19:41;;;;;;;0.52;0.32;;;21.50;99.90;;;;;;5078959;28;20119;-74
2022/04/30 06:22:09;;;;;;;1.05;0.28;;;21.40;99.90;;;;;;5072010;28;20315;-75
2022/04/30 06:24:36;;;;;;;2.20;0.30;;;21.30;99.90;;;;;;5071546;28;20031;-74
2022/04/30 06:27:04;;;;;;;1.08;0.30;;;21.20;99.90;;;;;;5072322;28;20024;-75
2022/04/30 06:29:31;;;;;;;1.20;0.40;;;21.10;99.90;;;;;;5073627;28;20133;-74
2022/04/30 06:31:58;;;;;;;1.05;0.40;;;21.00;99.90;;;;;;5070622;28;20395;-75
2022/04/30 06:34:26;;;;;;;0.60;0.38;;;20.90;99.90;;;;;;5072350;28;20427;-75
2022/04/30 06:36:53;;;;;;;0.30;0.20;;;20.70;99.90;;;;;;5073284;28;20080;-75
2022/04/30 06:39:20;;;;;;;0.77;0.22;;;20.60;99.90;;;;;;5071087;28;20040;-72
2022/04/30 06:41:47;;;;;;;0.77;0.43;;;20.50;99.90;;;;;;5071207;28;20024;-74
2022/04/30 06:44:15;;;;;;;0.70;0.43;;;20.40;99.90;;;;;;5070646;28;20032;-73
2022/04/30 06:46:42;;;;;;;0.65;0.40;;;20.40;99.90;;;;;;5072497;28;20403;-73
2022/04/30 06:49:09;;;;;;;0.88;0.60;;;20.40;99.90;;;;;;5077710;28;20052;-74
2022/04/30 06:51:37;;;;;;;0.93;0.45;;;20.40;99.90;;;;;;5077461;28;20024;-74
2022/04/30 06:57:08;;;;;;;1.10;0.55;;;20.30;99.90;;;;;;5085108;28;20461;-73
2022/04/30 06:59:41;;;;;;;1.92;0.60;;;20.10;99.90;;;;;;5076935;28;20040;-73
2022/04/30 07:02:23;;;;;;;1.23;0.80;;;19.90;99.90;;;;;;5080283;28;21279;-73
2022/04/30 07:04:52;;;;;;;1.75;0.60;;;19.70;99.90;;;;;;5086653;28;20032;-73
2022/04/30 07:07:20;;;;;;;0.85;0.43;;;19.50;99.90;;;;;;5091764;28;20486;-75
2022/04/30 07:09:48;;;;;;;0.95;0.50;;;19.30;99.90;;;;;;5087086;28;20036;-74
2022/04/30 07:12:17;;;;;;;1.08;0.60;;;19.10;99.90;;;;;;5096430;28;20031;-74
2022/04/30 07:14:45;;;;;;;1.42;0.68;;;19.10;99.90;;;;;;5083689;28;20039;-74
2022/04/30 07:17:14;;;;;;;3.30;1.00;;;18.90;99.90;;;;;;5078766;28;20031;-75
2022/04/30 07:19:41;;;;;;;2.00;0.95;;;18.80;99.90;;;;;;5073800;28;20048;-75
2022/04/30 07:22:09;;;;;;;2.78;0.88;;;18.70;99.90;;;;;;5082287;28;20029;-75
2022/04/30 07:24:37;;;;;;;1.70;0.80;;;18.60;99.90;;;;;;5084413;28;20028;-75
2022/04/30 07:27:05;;;;;;;1.05;0.40;;;18.50;99.90;;;;;;5101998;28;20521;-76
2022/04/30 07:29:33;;;;;;;7.20;3.60;;;18.50;99.90;;;;;;5094087;28;20120;-76
2022/04/30 07:32:01;;;;;;;9.70;5.07;;;18.40;99.90;;;;;;5090699;28;20103;-76
2022/04/30 07:34:28;;;;;;;7.40;4.28;;;18.20;99.90;;;;;;5075574;28;20735;-76
2022/04/30 07:36:56;;;;;;;6.13;2.70;;;18.10;99.90;;;;;;5092372;28;20027;-75
2022/04/30 07:39:24;;;;;;;5.05;2.20;;;18.10;99.90;;;;;;5110051;28;20048;-74
2022/04/30 07:41:53;;;;;;;7.70;2.20;;;17.90;99.90;;;;;;5084792;28;20024;-75
2022/04/30 07:44:22;;;;;;;5.97;1.52;;;17.80;99.90;;;;;;5089552;28;20107;-74
2022/04/30 07:46:49;;;;;;;3.20;1.45;;;17.80;99.90;;;;;;5082753;28;20047;-75
2022/04/30 07:49:16;;;;;;;2.80;1.27;;;17.70;99.90;;;;;;5086096;28;20036;-76
2022/04/30 07:51:53;;;;;;;3.10;1.50;;;17.60;99.90;;;;;;5088072;28;20124;-75
2022/04/30 07:54:21;;;;;;;4.07;3.30;;;17.50;99.90;;;;;;5093853;28;20097;-73
2022/04/30 07:56:53;;;;;;;5.45;2.63;;;17.50;99.90;;;;;;5100612;28;20024;-75
2022/04/30 07:59:21;;;;;;;4.78;2.20;;;17.40;99.90;;;;;;5109755;28;20122;-73
2022/04/30 08:01:49;;;;;;;3.72;2.45;;;17.30;99.90;;;;;;5081423;28;20020;-75
2022/04/30 08:04:17;;;;;;;2.58;1.80;;;17.30;99.90;;;;;;5078501;28;20033;-75
2022/04/30 08:06:44;;;;;;;3.10;1.42;;;17.20;99.90;;;;;;5081517;28;20035;-76
2022/04/30 08:09:11;;;;;;;5.85;2.53;;;17.10;99.90;;;;;;5094281;28;20031;-74
2022/04/30 08:11:40;;;;;;;4.13;2.33;;;17.00;99.90;;;;;;5106949;28;20027;-76
2022/04/30 08:14:07;;;;;;;3.92;2.22;;;17.00;99.90;;;;;;5114967;28;20035;-75
2022/04/30 08:16:34;;;;;;;6.57;2.63;;;17.00;99.90;;;;;;5087948;28;20478;-75
2022/04/30 08:19:02;;;;;;;3.85;2.28;;;16.90;99.90;;;;;;5093740;28;20028;-74
2022/04/30 08:21:29;;;;;;;3.53;2.08;;;16.80;99.90;;;;;;5084445;28;20423;-75
2022/04/30 08:23:56;;;;;;;6.32;3.10;;;16.80;99.90;;;;;;5094449;28;20554;-74
2022/04/30 08:26:24;;;;;;;6.38;3.45;;;16.70;99.90;;;;;;5096073;28;20027;-75
2022/04/30 08:28:51;;;;;;;4.85;2.80;;;16.70;99.90;;;;;;5091687;28;20511;-75
2022/04/30 08:31:19;;;;;;;12.57;5.22;;;16.60;99.90;;;;;;5091446;28;20035;-74
2022/04/30 08:33:46;;;;;;;7.45;3.30;;;16.60;99.90;;;;;;5091846;28;20111;-75
2022/04/30 08:36:14;;;;;;;7.75;2.95;;;16.60;99.90;;;;;;5092411;28;20027;-73
2022/04/30 08:38:41;;;;;;;7.70;4.20;;;16.60;99.90;;;;;;5093314;28;20422;-73
2022/04/30 08:41:13;;;;;;;10.90;7.68;;;16.50;99.90;;;;;;5093167;28;20031;-76
2022/04/30 08:43:42;;;;;;;9.73;7.30;;;16.50;99.90;;;;;;5110399;28;20030;-76
2022/04/30 08:46:09;;;;;;;9.35;6.90;;;16.50;99.90;;;;;;5092440;28;20024;-75
2022/04/30 08:48:37;;;;;;;10.80;7.18;;;16.50;99.90;;;;;;5093495;28;20383;-74
2022/04/30 08:51:05;;;;;;;10.40;6.05;;;16.40;99.90;;;;;;5088457;28;20027;-75
2022/04/30 08:53:32;;;;;;;8.98;4.63;;;16.40;99.90;;;;;;5099144;28;20458;-77
2022/04/30 08:55:59;;;;;;;6.95;3.30;;;16.40;99.90;;;;;;5092915;28;20028;-75
2022/04/30 08:58:27;;;;;;;4.70;3.78;;;16.30;99.90;;;;;;5113550;28;20024;-75
2022/04/30 09:00:54;;;;;;;2.80;1.73;;;16.20;99.90;;;;;;5096749;28;20535;-76
2022/04/30 09:03:22;;;;;;;1.05;0.85;;;16.10;99.90;;;;;;5100181;28;20023;-75
2022/04/30 09:05:50;;;;;;;2.10;1.52;;;16.00;99.90;;;;;;5090870;28;20040;-76
2022/04/30 09:08:17;;;;;;;2.58;0.80;;;15.90;99.90;;;;;;5086860;28;20567;-75
2022/04/30 09:10:45;;;;;;;1.98;0.90;;;15.90;99.90;;;;;;5092980;28;20032;-76
2022/04/30 09:13:15;;;;;;;1.63;0.80;;;15.90;99.90;;;;;;5089997;28;20386;-74
2022/04/30 09:15:46;;;;;;;1.02;0.40;;;15.80;99.90;;;;;;5083186;28;20056;-75
2022/04/30 09:18:15;;;;;;;0.63;0.47;;;15.80;99.90;;;;;;5089157;28;20038;-73
2022/04/30 09:20:48;;;;;;;1.92;0.65;;;15.80;99.90;;;;;;5089687;28;20040;-73
2022/04/30 09:23:26;;;;;;;1.00;0.40;;;15.90;99.90;;;;;;5090619;28;20034;-75
2022/04/30 09:25:56;;;;;;;1.35;0.75;;;15.90;99.90;;;;;;5081223;28;20498;-75
2022/04/30 09:28:32;;;;;;;1.35;0.30;;;15.90;99.90;;;;;;5082042;28;20028;-76
2022/04/30 09:31:18;;;;;;;2.10;0.40;;;15.90;99.90;;;;;;5072860;28;20032;-75
2022/04/30 09:33:59;;;;;;;0.90;0.65;;;15.80;99.90;;;;;;5082862;28;20039;-76
2022/04/30 09:39:14;;;;;;;0.70;0.37;;;15.70;99.90;;;;;;5073146;28;20063;-76
2022/04/30 09:41:41;;;;;;;0.80;0.40;;;15.60;99.90;;;;;;5073738;28;20065;-73
2022/04/30 09:44:12;;;;;;;1.48;0.80;;;15.50;99.90;;;;;;5075511;28;20032;-74
2022/04/30 09:46:40;;;;;;;0.68;0.32;;;15.40;99.90;;;;;;5074753;28;20029;-73
2022/04/30 09:54:52;;;;;;;0.73;0.63;;;15.30;99.90;;;;;;5076406;28;20031;-75
2022/04/30 09:57:23;;;;;;;2.55;0.90;;;15.30;99.90;;;;;;5070322;28;20645;-74
2022/04/30 09:59:59;;;;;;;0.68;0.57;;;15.20;99.90;;;;;;5072521;28;20394;-74
2022/04/30 10:02:28;;;;;;;1.58;0.68;;;15.10;99.90;;;;;;5096215;28;20119;-74
2022/04/30 10:04:56;;;;;;;1.48;0.60;;;15.10;99.90;;;;;;5078259;28;20479;-73
2022/04/30 10:07:25;;;;;;;3.20;0.80;;;15.00;99.90;;;;;;5070198;28;20024;-74
2022/04/30 10:10:06;;;;;;;2.38;0.60;;;15.00;99.90;;;;;;5073330;28;20724;-72
2022/04/30 10:12:53;;;;;;;1.40;0.60;;;14.90;99.90;;;;;;5073536;28;20863;-76
2022/04/30 10:15:29;;;;;;;4.15;0.90;;;14.80;99.90;;;;;;5074355;28;20494;-73
2022/04/30 10:17:58;;;;;;;2.15;0.80;;;14.70;99.90;;;;;;5072227;28;20060;-73
2022/04/30 10:20:39;;;;;;;2.15;0.40;;;14.70;99.90;;;;;;5072121;28;20035;-72
2022/04/30 10:23:07;;;;;;;1.70;0.93;;;14.60;99.90;;;;;;5072140;28;20103;-74
2022/04/30 10:25:48;;;;;;;2.28;1.00;;;14.60;99.90;;;;;;5073163;28;20033;-73
2022/04/30 10:28:23;;;;;;;0.88;0.70;;;14.60;99.90;;;;;;5091120;28;20048;-74
2022/04/30 10:31:03;;;;;;;1.90;1.42;;;14.60;99.90;;;;;;5070903;28;20031;-75
2022/04/30 10:33:31;;;;;;;5.88;2.05;;;14.60;99.90;;;;;;5073423;28;20055;-73
2022/04/30 10:36:10;;;;;;;0.98;0.57;;;14.50;99.90;;;;;;5070109;28;20056;-73
2022/04/30 10:38:38;;;;;;;2.47;0.40;;;14.50;99.90;;;;;;5071012;28;20036;-73
2022/04/30 10:41:10;;;;;;;6.63;0.50;;;14.40;99.90;;;;;;5071532;28;20035;-72
2022/04/30 10:43:42;;;;;;;2.35;0.90;;;14.40;99.90;;;;;;5072421;28;20055;-74
2022/04/30 10:46:23;;;;;;;2.90;1.17;;;14.40;99.90;;;;;;5070989;28;20081;-73
2022/04/30 10:48:51;;;;;;;3.70;1.15;;;14.40;99.90;;;;;;5074106;28;20066;-73
2022/04/30 10:51:39;;;;;;;8.25;1.33;;;14.30;99.90;;;;;;5059870;28;20024;-73
2022/04/30 10:54:10;;;;;;;1.48;0.90;;;14.30;99.90;;;;;;5060305;28;20041;-74
2022/04/30 10:56:39;;;;;;;2.70;0.98;;;14.30;99.90;;;;;;5070686;28;20023;-72
2022/04/30 10:59:07;;;;;;;1.13;0.60;;;14.30;99.90;;;;;;5075620;28;20083;-73
2022/04/30 11:01:35;;;;;;;3.45;1.60;;;14.20;99.90;;;;;;5073094;28;20123;-74
2022/04/30 11:04:03;;;;;;;2.90;1.50;;;14.20;99.90;;;;;;5072342;28;20445;-74
2022/04/30 11:06:34;;;;;;;1.95;0.60;;;14.10;99.90;;;;;;5074954;28;20478;-74
2022/04/30 11:09:09;;;;;;;1.17;0.70;;;14.10;99.90;;;;;;5070708;28;20036;-73
2022/04/30 11:11:37;;;;;;;3.05;1.55;;;14.00;99.90;;;;;;5074369;28;20040;-71
2022/04/30 11:14:08;;;;;;;1.15;0.70;;;14.00;99.90;;;;;;5084672;28;20031;-72
2022/04/30 11:16:37;;;;;;;4.95;0.40;;;14.00;99.90;;;;;;5095664;28;20023;-73
2022/04/30 11:19:09;;;;;;;9.50;3.08;;;13.90;99.90;;;;;;5102938;28;20474;-74
2022/04/30 11:21:41;;;;;;;5.07;2.83;;;13.90;99.90;;;;;;5077314;28;20532;-74
2022/04/30 11:24:10;;;;;;;4.28;2.25;;;13.80;99.90;;;;;;5079620;28;20020;-75
2022/04/30 11:26:42;;;;;;;2.85;1.33;;;13.80;99.90;;;;;;5090376;28;20493;-74
2022/04/30 11:29:12;;;;;;;3.47;1.65;;;13.80;99.90;;;;;;5089762;28;20119;-74
2022/04/30 11:31:42;;;;;;;3.80;2.03;;;13.70;99.90;;;;;;5077400;28;20031;-74
2022/04/30 11:34:11;;;;;;;3.47;1.95;;;13.70;99.90;;;;;;5076992;28;20028;-73
2022/04/30 11:36:44;;;;;;;2.35;1.48;;;13.70;99.90;;;;;;5082231;28;20023;-75
2022/04/30 11:39:12;;;;;;;2.40;0.70;;;13.70;99.90;;;;;;5070491;28;20175;-74
2022/04/30 11:41:45;;;;;;;2.08;0.50;;;13.60;99.90;;;;;;5083929;28;20048;-73
2022/04/30 11:44:16;;;;;;;1.27;0.90;;;13.60;99.90;;;;;;5088901;28;20028;-73
2022/04/30 11:46:47;;;;;;;1.48;0.50;;;13.60;99.90;;;;;;5076255;28;20483;-73
2022/04/30 11:49:19;;;;;;;1.17;0.40;;;13.60;99.90;;;;;;5081353;28;20033;-74
2022/04/30 11:51:48;;;;;;;1.55;0.40;;;13.60;99.90;;;;;;5075593;28;20077;-73
2022/04/30 11:54:19;;;;;;;0.70;0.32;;;13.50;99.90;;;;;;5082494;28;20158;-74
2022/04/30 11:56:47;;;;;;;0.77;0.40;;;13.50;99.90;;;;;;5092524;28;20031;-73
2022/04/30 11:59:14;;;;;;;2.00;0.50;;;13.40;99.90;;;;;;5090970;28;20097;-74
2022/04/30 12:01:42;;;;;;;3.97;0.82;;;13.40;99.90;;;;;;5077562;28;22510;-74
2022/04/30 12:04:14;;;;;;;3.30;1.85;;;13.30;99.90;;;;;;5080630;28;20031;-74
2022/04/30 12:06:45;;;;;;;2.95;1.50;;;13.30;99.90;;;;;;5077056;28;20037;-74
2022/04/30 12:09:20;;;;;;;5.47;1.38;;;13.30;99.90;;;;;;5073883;28;20039;-74
2022/04/30 12:11:53;;;;;;;2.75;1.27;;;13.20;99.90;;;;;;5084112;28;20545;-74
2022/04/30 12:14:21;;;;;;;1.60;0.93;;;13.20;99.90;;;;;;5087690;28;20036;-75
2022/04/30 12:16:49;;;;;;;1.20;0.60;;;13.10;99.90;;;;;;5096576;28;20024;-74
2022/04/30 12:25:10;;;;;;;2.20;1.33;;;12.90;99.90;;;;;;5081006;28;20027;-76
2022/04/30 12:28:04;;;;;;;1.83;1.30;;;12.80;99.90;;;;;;5082274;28;20174;-75
2022/04/30 12:30:33;;;;;;;3.08;1.27;;;12.80;99.90;;;;;;5073610;28;20020;-74
2022/04/30 12:33:05;;;;;;;3.28;1.77;;;12.80;99.90;;;;;;5074262;28;20126;-75
2022/04/30 12:35:35;;;;;;;2.58;1.33;;;12.80;99.90;;;;;;5074045;28;20024;-74
2022/04/30 12:38:14;;;;;;;3.40;1.92;;;12.80;99.90;;;;;;5082370;28;20032;-74
2022/04/30 12:40:50;;;;;;;3.10;1.50;;;12.70;99.90;;;;;;5075589;28;20076;-74
2022/04/30 12:43:18;;;;;;;;;;;12.70;99.90;;;;;;5073512;28;20055;-74
2022/04/30 12:45:48;;;;;;;1.70;0.85;;;12.70;99.90;;;;;;5074702;28;20025;-74
2022/04/30 12:48:15;;;;;;;2.83;0.90;;;12.70;99.90;;;;;;5080062;28;20048;-75
2022/04/30 12:50:43;;;;;;;2.42;1.00;;;12.60;99.90;;;;;;5072485;28;20059;-75
2022/04/30 12:53:10;;;;;;;1.77;0.77;;;12.50;99.90;;;;;;5074234;28;20031;-76
2022/04/30 12:55:42;;;;;;;2.90;1.02;;;12.50;99.90;;;;;;5070588;28;20032;-74
2022/04/30 12:58:11;;;;;;;2.05;0.85;;;12.50;99.90;;;;;;5110287;28;20088;-72
2022/04/30 13:00:39;;;;;;;1.40;0.93;;;12.40;99.90;;;;;;5093964;28;20485;-74
2022/04/30 13:03:07;;;;;;;2.22;0.75;;;12.40;99.90;;;;;;5080523;28;20028;-73
2022/04/30 13:05:34;;;;;;;3.55;1.23;;;12.30;99.90;;;;;;5078955;28;20412;-73
2022/04/30 13:08:01;;;;;;;2.97;1.50;;;12.30;99.90;;;;;;5085230;28;20133;-74
2022/04/30 13:13:33;;;;;;;4.25;1.70;;;12.10;99.90;;;;;;5078861;28;20027;-74
2022/04/30 13:16:09;;;;;;;6.53;2.30;;;12.10;99.90;;;;;;5076024;28;20055;-73
2022/04/30 13:18:37;;;;;;;2.58;1.63;;;12.10;99.90;;;;;;5087725;28;20052;-73
2022/04/30 13:21:05;;;;;;;5.43;2.53;;;12.00;99.90;;;;;;5071645;28;20036;-72
2022/04/30 13:23:33;;;;;;;3.25;2.08;;;12.00;99.90;;;;;;5071816;28;20060;-73
2022/04/30 13:26:01;;;;;;;4.15;2.03;;;11.90;99.90;;;;;;5078749;28;20111;-72
2022/04/30 13:28:29;;;;;;;6.45;1.85;;;11.90;99.90;;;;;;5082362;28;20032;-74
2022/04/30 13:30:56;;;;;;;4.18;2.03;;;11.90;99.90;;;;;;5072432;28;20037;-73
2022/04/30 13:33:23;;;;;;;3.50;2.15;;;11.90;99.90;;;;;;5084859;28;20028;-74
2022/04/30 13:35:51;;;;;;;3.17;2.03;;;11.80;99.90;;;;;;5071346;28;20028;-74
2022/04/30 13:38:18;;;;;;;2.28;1.63;;;11.80;99.90;;;;;;5073639;28;20413;-74
2022/04/30 13:40:45;;;;;;;5.55;2.05;;;11.70;99.90;;;;;;5071146;28;20031;-74